Time;durP1;ratioP1;P1;durP2;ratioP2;P2;SDS_P1;SDS_P2;PMS_P1;PMS_P2;Temp;Humidity;BMP_temperature;BMP_pressure;BME280_temperature;BME280_humidity;BME280_pressure;Samples;Min_cycle;Max_cycle;Signal;HPM_P1;HPM_P2
2023/04/09 00:00:41;;;;;;;92.30;67.40;;;;;;;4.75;100.00;99578.96;109715;1251;59256;-72
2023/04/09 00:03:27;;;;;;;86.30;62.40;;;;;;;4.72;100.00;99575.53;109695;1251;64704;-72
2023/04/09 00:05:54;;;;;;;84.60;63.70;;;;;;;4.70;100.00;99573.49;109373;1249;60131;-72
2023/04/09 00:08:22;;;;;;;93.00;66.30;;;;;;;4.68;100.00;99572.34;109685;1251;64023;-71
2023/04/09 00:10:50;;;;;;;93.20;66.50;;;;;;;4.66;100.00;99574.68;109688;1251;58982;-72
2023/04/09 00:13:17;;;;;;;87.80;64.20;;;;;;;4.63;100.00;99573.90;109758;1250;59109;-71
2023/04/09 00:15:44;;;;;;;92.60;66.70;;;;;;;4.60;100.00;99571.70;109696;1249;66050;-71
2023/04/09 00:18:12;;;;;;;89.30;67.90;;;;;;;4.58;100.00;99571.06;109714;1250;58989;-72
2023/04/09 00:20:39;;;;;;;99.50;71.30;;;;;;;4.56;100.00;99574.30;109572;1249;73817;-72
2023/04/09 00:23:06;;;;;;;100.90;73.40;;;;;;;4.55;100.00;99581.54;109701;1250;59014;-72
2023/04/09 00:25:32;;;;;;;106.10;77.10;;;;;;;4.56;100.00;99582.77;109704;1249;58999;-72
2023/04/09 00:27:59;;;;;;;136.00;92.60;;;;;;;4.56;100.00;99585.73;109690;1249;66441;-72
2023/04/09 00:30:28;;;;;;;135.50;90.80;;;;;;;4.59;100.00;99586.54;109699;1251;60213;-72
2023/04/09 00:32:55;;;;;;;124.30;84.80;;;;;;;4.61;100.00;99585.92;109727;1249;62540;-72
2023/04/09 00:35:22;;;;;;;116.40;80.80;;;;;;;4.63;100.00;99592.90;109682;1251;58940;-72
2023/04/09 00:37:49;;;;;;;111.00;77.90;;;;;;;4.62;100.00;99589.59;109719;1249;59280;-71
2023/04/09 00:40:16;;;;;;;100.30;74.40;;;;;;;4.61;100.00;99587.86;109736;1250;66029;-71
2023/04/09 00:42:42;;;;;;;97.10;71.70;;;;;;;4.59;100.00;99586.34;109708;1250;60142;-72
2023/04/09 00:45:09;;;;;;;105.20;76.70;;;;;;;4.55;100.00;99586.11;109349;1250;59180;-71
2023/04/09 00:47:36;;;;;;;118.50;83.30;;;;;;;4.53;100.00;99588.30;109687;1250;59000;-72
2023/04/09 00:50:03;;;;;;;104.00;75.60;;;;;;;4.53;100.00;99590.06;109699;1250;58956;-73
2023/04/09 00:52:30;;;;;;;101.70;77.00;;;;;;;4.52;100.00;99590.80;109749;1249;66033;-72
2023/04/09 00:54:59;;;;;;;108.10;78.30;;;;;;;4.52;100.00;99593.11;109694;1251;59842;-72
2023/04/09 00:57:27;;;;;;;112.90;81.80;;;;;;;4.51;100.00;99595.40;109522;1250;64516;-72
2023/04/09 00:59:54;;;;;;;115.60;83.00;;;;;;;4.52;100.00;99593.08;109661;1251;59026;-72
2023/04/09 01:02:21;;;;;;;116.60;84.50;;;;;;;4.51;100.00;99591.53;109556;1250;59153;-72
2023/04/09 01:04:49;;;;;;;112.60;80.10;;;;;;;4.51;100.00;99589.97;109706;1249;66097;-72
2023/04/09 01:07:18;;;;;;;106.80;77.70;;;;;;;4.51;100.00;99588.18;109672;1251;60146;-72
2023/04/09 01:09:53;;;;;;;111.40;78.20;;;;;;;4.52;100.00;99586.77;109704;1251;62825;-72
2023/04/09 01:12:45;;;;;;;109.10;78.50;;;;;;;4.51;100.00;99591.38;109649;1249;59058;-72
2023/04/09 01:15:21;;;;;;;113.10;82.00;;;;;;;4.53;100.00;99590.95;108996;1258;59205;-72
2023/04/09 01:17:55;;;;;;;115.30;80.50;;;;;;;4.56;100.00;99593.15;109029;1260;64875;-72
2023/04/09 01:20:42;;;;;;;111.40;77.70;;;;;;;4.57;100.00;99585.91;108983;1258;59355;-72
2023/04/09 01:23:09;;;;;;;113.50;80.40;;;;;;;4.56;100.00;99584.17;108984;1259;64187;-72
2023/04/09 01:25:47;;;;;;;103.30;77.30;;;;;;;4.57;100.00;99589.73;108997;1258;59045;-72
2023/04/09 01:28:22;;;;;;;102.50;73.90;;;;;;;4.56;100.00;99587.14;108964;1259;59130;-72
2023/04/09 01:30:52;;;;;;;105.10;75.10;;;;;;;4.52;100.00;99586.41;109006;1259;66021;-72
2023/04/09 01:33:21;;;;;;;100.10;74.30;;;;;;;4.46;100.00;99586.05;108991;1258;60593;-71
2023/04/09 01:35:49;;;;;;;105.10;77.50;;;;;;;4.42;100.00;99588.66;109003;1259;62593;-71
2023/04/09 01:38:18;;;;;;;99.70;74.90;;;;;;;4.37;100.00;99587.93;108997;1257;59115;-71
2023/04/09 01:40:45;;;;;;;103.80;77.30;;;;;;;4.33;100.00;99587.02;109022;1257;58971;-71
2023/04/09 01:43:13;;;;;;;106.80;78.50;;;;;;;4.31;100.00;99588.32;109008;1258;66121;-72
2023/04/09 01:45:41;;;;;;;116.60;84.00;;;;;;;4.29;100.00;99589.42;108991;1258;59250;-72
2023/04/09 01:48:09;;;;;;;109.90;80.50;;;;;;;4.29;100.00;99590.32;109014;1258;64493;-72
2023/04/09 01:50:36;;;;;;;111.00;82.80;;;;;;;4.28;100.00;99593.52;109000;1260;59031;-72
2023/04/09 01:53:02;;;;;;;108.90;81.20;;;;;;;4.26;100.00;99593.40;109425;1251;58906;-72
2023/04/09 01:55:29;;;;;;;101.90;74.00;;;;;;;4.24;100.00;99596.98;109391;1251;64858;-71
2023/04/09 01:57:55;;;;;;;99.30;78.10;;;;;;;4.23;100.00;99597.73;109714;1249;59007;-71
2023/04/09 02:00:47;;;;;;;116.60;87.40;;;;;;;4.22;100.00;99597.58;109674;1250;62540;-72
2023/04/09 02:03:36;;;;;;;120.80;91.40;;;;;;;4.22;100.00;99596.34;109663;1250;59332;-71
2023/04/09 02:06:16;;;;;;;134.60;97.70;;;;;;;4.21;100.00;99593.39;109295;1249;61200;-71
2023/04/09 02:08:46;;;;;;;129.80;95.10;;;;;;;4.22;100.00;99591.97;109536;1251;66022;-71
2023/04/09 02:11:15;;;;;;;126.80;93.50;;;;;;;4.23;100.00;99589.08;109527;1251;60222;-71
2023/04/09 02:13:42;;;;;;;124.10;90.70;;;;;;;4.25;100.00;99590.80;109539;1250;64037;-71
2023/04/09 02:16:12;;;;;;;126.30;92.70;;;;;;;4.24;100.00;99588.17;109385;1249;59124;-71
2023/04/09 02:18:39;;;;;;;121.80;90.60;;;;;;;4.24;100.00;99585.02;109694;1249;59034;-71
2023/04/09 02:21:06;;;;;;;128.60;94.70;;;;;;;4.23;100.00;99584.16;109693;1250;64813;-71
2023/04/09 02:23:33;;;;;;;122.10;90.70;;;;;;;4.22;100.00;99586.30;109447;1250;60025;-71
2023/04/09 02:26:00;;;;;;;116.70;89.50;;;;;;;4.21;100.00;99587.21;109571;1249;62852;-72
2023/04/09 02:28:26;;;;;;;127.10;90.20;;;;;;;4.19;100.00;99585.36;109680;1249;59267;-72
2023/04/09 02:30:53;;;;;;;121.00;90.70;;;;;;;4.18;100.00;99583.62;109692;1250;59026;-72
2023/04/09 02:33:20;;;;;;;123.70;92.10;;;;;;;4.18;100.00;99581.35;109744;1250;59760;-73
2023/04/09 02:35:46;;;;;;;118.70;88.50;;;;;;;4.17;100.00;99581.34;109706;1250;60090;-72
2023/04/09 02:38:14;;;;;;;121.90;89.20;;;;;;;4.17;100.00;99581.20;109503;1251;64075;-72
2023/04/09 02:40:41;;;;;;;121.90;90.40;;;;;;;4.15;100.00;99585.30;109680;1249;59036;-72
2023/04/09 02:43:09;;;;;;;118.50;90.40;;;;;;;4.12;100.00;99585.91;109742;1249;58917;-72
2023/04/09 02:45:35;;;;;;;117.80;87.90;;;;;;;4.12;100.00;99586.80;109559;1252;66065;-72
2023/04/09 02:48:02;;;;;;;120.20;88.70;;;;;;;4.12;100.00;99587.52;109553;1249;58970;-72
2023/04/09 02:50:28;;;;;;;122.70;91.50;;;;;;;4.12;100.00;99590.14;109689;1250;62789;-72
2023/04/09 02:52:55;;;;;;;118.30;87.50;;;;;;;4.12;100.00;99590.13;109719;1249;59031;-72
2023/04/09 02:55:21;;;;;;;128.80;91.90;;;;;;;4.12;100.00;99589.77;109696;1250;59190;-72
2023/04/09 02:57:48;;;;;;;130.70;93.40;;;;;;;4.12;100.00;99587.51;109411;1250;66056;-72
2023/04/09 03:00:15;;;;;;;122.90;90.80;;;;;;;4.11;100.00;99588.22;109763;1249;58943;-72
2023/04/09 03:02:41;;;;;;;133.80;96.30;;;;;;;4.12;100.00;99591.03;109686;1250;62833;-72
2023/04/09 03:05:08;;;;;;;131.00;95.10;;;;;;;4.12;100.00;99590.51;109726;1249;59251;-72
2023/04/09 03:07:34;;;;;;;125.10;90.40;;;;;;;4.12;100.00;99587.51;109525;1251;59010;-72
2023/04/09 03:10:01;;;;;;;116.50;88.10;;;;;;;4.12;100.00;99589.45;109729;1249;66025;-72
2023/04/09 03:12:27;;;;;;;123.10;91.80;;;;;;;4.12;100.00;99588.73;109661;1249;60123;-72
2023/04/09 03:14:54;;;;;;;119.10;90.10;;;;;;;4.13;100.00;99594.85;109526;1250;64080;-72
2023/04/09 03:17:20;;;;;;;113.70;87.60;;;;;;;4.15;100.00;99593.39;109695;1249;58886;-72
2023/04/09 03:19:47;;;;;;;116.30;88.30;;;;;;;4.16;100.00;99597.93;109369;1249;59070;-72
2023/04/09 03:22:14;;;;;;;128.00;95.00;;;;;;;4.18;100.00;99601.21;109686;1250;64931;-72
2023/04/09 03:24:40;;;;;;;130.10;98.20;;;;;;;4.19;100.00;99602.40;109723;1249;60107;-72
2023/04/09 03:27:07;;;;;;;132.60;101.30;;;;;;;4.22;100.00;99604.95;109751;1249;64046;-72
2023/04/09 03:29:33;;;;;;;124.40;93.90;;;;;;;4.25;100.00;99602.24;109660;1250;58952;-72
2023/04/09 03:32:00;;;;;;;126.80;94.00;;;;;;;4.27;100.00;99604.47;109558;1249;59071;-72
2023/04/09 03:34:26;;;;;;;131.20;98.40;;;;;;;4.28;100.00;99598.42;109724;1250;65705;-72
2023/04/09 03:36:53;;;;;;;139.50;103.50;;;;;;;4.30;100.00;99596.11;109698;1250;59218;-72
2023/04/09 03:39:19;;;;;;;122.40;91.30;;;;;;;4.30;100.00;99594.85;109694;1250;64147;-72
2023/04/09 03:41:46;;;;;;;123.80;95.30;;;;;;;4.31;100.00;99594.64;109544;1250;59008;-71
2023/04/09 03:44:12;;;;;;;115.10;88.40;;;;;;;4.33;100.00;99594.79;109694;1250;59137;-72
2023/04/09 03:46:39;;;;;;;120.10;93.20;;;;;;;4.32;100.00;99595.66;109752;1249;58969;-72
2023/04/09 03:49:06;;;;;;;125.60;96.80;;;;;;;4.32;100.00;99599.36;109751;1250;58998;-72
2023/04/09 03:51:32;;;;;;;138.50;104.00;;;;;;;4.33;100.00;99596.86;109670;1249;62825;-72
2023/04/09 03:53:59;;;;;;;139.30;105.40;;;;;;;4.36;100.00;99599.06;109712;1249;58976;-72
2023/04/09 03:56:26;;;;;;;135.50;103.50;;;;;;;4.38;100.00;99596.02;109711;1249;59011;-72
2023/04/09 03:58:52;;;;;;;132.30;100.80;;;;;;;4.39;100.00;99595.96;109782;1250;64835;-72
2023/04/09 04:01:19;;;;;;;123.70;94.40;;;;;;;4.41;100.00;99599.61;109540;1250;59340;-72
2023/04/09 04:03:45;;;;;;;125.80;93.40;;;;;;;4.42;100.00;99599.57;109727;1251;64059;-71
2023/04/09 04:06:12;;;;;;;122.90;92.60;;;;;;;4.43;100.00;99597.08;109720;1249;59072;-72
2023/04/09 04:08:38;;;;;;;121.60;96.40;;;;;;;4.43;100.00;99599.55;109704;1250;59918;-72
2023/04/09 04:11:05;;;;;;;126.30;98.30;;;;;;;4.43;100.00;99602.55;109755;1250;59269;-72
2023/04/09 04:13:32;;;;;;;122.20;93.30;;;;;;;4.43;100.00;99602.00;109685;1250;60140;-72
2023/04/09 04:15:58;;;;;;;120.90;93.70;;;;;;;4.44;100.00;99604.98;109681;1250;65012;-73
2023/04/09 04:18:25;;;;;;;133.70;97.80;;;;;;;4.44;100.00;99606.20;109697;1249;59094;-73
2023/04/09 04:20:51;;;;;;;126.10;95.20;;;;;;;4.44;100.00;99606.19;109447;1249;59010;-72
2023/04/09 04:23:18;;;;;;;121.70;91.70;;;;;;;4.44;100.00;99605.51;109732;1250;59016;-73
2023/04/09 04:25:44;;;;;;;124.80;96.00;;;;;;;4.43;100.00;99606.42;109669;1250;60087;-73
2023/04/09 04:28:11;;;;;;;131.60;100.40;;;;;;;4.43;100.00;99608.34;109718;1249;64108;-73
2023/04/09 04:30:40;;;;;;;128.00;99.50;;;;;;;4.45;100.00;99612.15;109514;1250;59085;-72
2023/04/09 04:33:07;;;;;;;131.90;100.70;;;;;;;4.46;100.00;99615.48;109616;1249;59027;-72
2023/04/09 04:35:33;;;;;;;133.80;102.10;;;;;;;4.48;100.00;99616.81;109537;1250;59293;-72
2023/04/09 04:38:00;;;;;;;126.60;99.70;;;;;;;4.51;100.00;99617.06;109704;1249;59283;-72
2023/04/09 04:40:26;;;;;;;126.50;100.20;;;;;;;4.54;100.00;99617.84;109684;1249;62536;-72
2023/04/09 04:42:53;;;;;;;119.70;95.30;;;;;;;4.56;100.00;99621.27;109566;1250;59284;-72
2023/04/09 04:45:20;;;;;;;132.60;101.00;;;;;;;4.58;100.00;99622.09;109724;1249;58973;-73
2023/04/09 04:47:46;;;;;;;131.00;101.60;;;;;;;4.60;100.00;99626.77;109513;1250;59008;-72
2023/04/09 04:50:13;;;;;;;134.60;102.20;;;;;;;4.61;100.00;99621.28;109726;1250;59028;-72
2023/04/09 04:52:39;;;;;;;168.70;122.50;;;;;;;4.65;100.00;99623.80;109687;1250;59011;-72
2023/04/09 04:55:06;;;;;;;150.70;112.50;;;;;;;4.70;100.00;99625.23;109716;1249;59238;-72
2023/04/09 04:57:32;;;;;;;149.40;111.50;;;;;;;4.74;100.00;99625.80;109750;1250;59085;-72
2023/04/09 04:59:59;;;;;;;135.40;104.20;;;;;;;4.80;100.00;99624.88;109395;1250;59638;-72
2023/04/09 05:02:25;;;;;;;147.40;113.30;;;;;;;4.87;100.00;99620.99;109708;1249;60187;-72
2023/04/09 05:04:52;;;;;;;143.40;108.70;;;;;;;4.93;100.00;99623.26;109668;1249;63773;-72
2023/04/09 05:07:19;;;;;;;139.60;106.60;;;;;;;4.99;100.00;99627.45;109555;1249;59120;-73
2023/04/09 05:09:45;;;;;;;136.80;105.80;;;;;;;5.04;100.00;99623.40;109661;1249;58891;-72
2023/04/09 05:12:14;;;;;;;135.10;103.70;;;;;;;5.10;100.00;99619.67;109709;1249;59335;-73
2023/04/09 05:14:40;;;;;;;138.20;108.50;;;;;;;5.15;100.00;99619.48;109686;1250;59036;-73
2023/04/09 05:17:07;;;;;;;133.40;104.90;;;;;;;5.20;100.00;99621.61;109693;1249;62850;-73
2023/04/09 05:19:33;;;;;;;140.40;111.30;;;;;;;5.26;100.00;99624.21;109685;1249;59213;-73
2023/04/09 05:22:00;;;;;;;149.80;114.50;;;;;;;5.33;100.00;99625.03;109743;1249;59039;-73
2023/04/09 05:24:26;;;;;;;139.20;110.50;;;;;;;5.39;100.00;99627.98;109687;1250;66037;-73
2023/04/09 05:26:53;;;;;;;135.60;110.00;;;;;;;5.45;100.00;99629.54;109719;1250;59030;-73
2023/04/09 05:29:19;;;;;;;136.30;112.40;;;;;;;5.49;100.00;99630.27;109677;1250;59178;-73
2023/04/09 05:31:46;;;;;;;143.90;115.70;;;;;;;5.54;100.00;99635.58;109686;1249;59040;-72
2023/04/09 05:34:12;;;;;;;141.80;120.30;;;;;;;5.58;100.00;99632.23;109728;1249;59105;-72
2023/04/09 05:36:39;;;;;;;149.30;120.90;;;;;;;5.66;100.00;99634.24;109693;1249;59342;-72
2023/04/09 05:39:06;;;;;;;153.70;127.90;;;;;;;5.72;100.00;99633.67;109722;1249;60102;-73
2023/04/09 05:41:32;;;;;;;154.20;123.10;;;;;;;5.80;100.00;99634.44;109449;1250;64088;-73
2023/04/09 05:43:59;;;;;;;154.40;116.00;;;;;;;5.85;100.00;99632.83;109704;1249;59042;-72
2023/04/09 05:46:26;;;;;;;154.00;115.70;;;;;;;5.91;100.00;99632.78;109671;1250;59165;-73
2023/04/09 05:48:52;;;;;;;153.90;117.90;;;;;;;5.99;100.00;99635.32;109573;1250;66337;-71
2023/04/09 05:51:19;;;;;;;149.70;112.90;;;;;;;6.11;100.00;99636.81;109708;1250;59123;-72
2023/04/09 05:53:45;;;;;;;147.20;114.70;;;;;;;6.22;100.00;99633.59;109653;1250;64053;-73
2023/04/09 05:56:14;;;;;;;143.30;110.20;;;;;;;6.39;100.00;99633.97;109732;1250;59016;-73
2023/04/09 05:58:40;;;;;;;137.90;111.60;;;;;;;6.62;100.00;99632.50;109527;1251;59034;-73
2023/04/09 06:01:07;;;;;;;142.40;109.60;;;;;;;6.92;100.00;99629.69;109688;1249;59007;-73
2023/04/09 06:03:34;;;;;;;124.10;99.60;;;;;;;7.35;100.00;99628.76;109709;1249;59988;-73
2023/04/09 06:06:00;;;;;;;115.20;95.20;;;;;;;7.65;100.00;99632.57;109700;1249;62828;-73
2023/04/09 06:08:27;;;;;;;112.00;88.00;;;;;;;8.06;100.00;99633.85;109710;1249;59104;-73
2023/04/09 06:10:53;;;;;;;110.30;88.50;;;;;;;8.37;100.00;99632.98;109723;1250;59012;-73
2023/04/09 06:13:20;;;;;;;104.10;80.40;;;;;;;8.49;100.00;99629.73;109680;1249;59045;-73
2023/04/09 06:15:47;;;;;;;99.40;77.90;;;;;;;8.62;100.00;99637.98;109720;1249;60522;-72
2023/04/09 06:18:13;;;;;;;99.00;78.80;;;;;;;8.73;100.00;99641.35;109664;1249;64070;-73
2023/04/09 06:20:40;;;;;;;86.50;67.80;;;;;;;8.76;100.00;99645.59;109665;1249;59005;-73
2023/04/09 06:23:06;;;;;;;86.70;66.20;;;;;;;8.78;100.00;99643.73;109685;1250;58983;-72
2023/04/09 06:25:35;;;;;;;82.00;65.50;;;;;;;8.87;100.00;99646.34;109560;1249;67156;-72
2023/04/09 06:28:02;;;;;;;94.20;72.10;;;;;;;8.91;100.00;99648.62;109691;1249;60140;-72
2023/04/09 06:30:29;;;;;;;94.90;75.20;;;;;;;8.92;100.00;99654.21;109710;1250;64052;-72
2023/04/09 06:32:56;;;;;;;95.20;75.50;;;;;;;8.96;100.00;99653.50;109663;1250;59133;-72
2023/04/09 06:35:22;;;;;;;92.90;74.30;;;;;;;9.03;100.00;99650.83;109694;1251;58967;-72
2023/04/09 06:37:49;;;;;;;93.40;76.30;;;;;;;9.08;100.00;99647.08;109782;1250;65960;-73
2023/04/09 06:40:16;;;;;;;103.40;81.00;;;;;;;9.09;100.00;99651.25;109783;1250;67714;-73
2023/04/09 06:42:42;;;;;;;101.50;82.90;;;;;;;9.12;100.00;99645.60;109575;1249;64757;-72
2023/04/09 06:45:09;;;;;;;99.30;81.50;;;;;;;9.17;100.00;99648.52;109681;1250;58969;-72
2023/04/09 06:47:36;;;;;;;99.80;82.30;;;;;;;9.28;100.00;99652.60;109718;1250;59248;-73
2023/04/09 06:50:03;;;;;;;95.30;78.40;;;;;;;9.38;100.00;99649.96;109602;1250;65654;-73
2023/04/09 06:52:29;;;;;;;93.90;78.50;;;;;;;9.46;100.00;99649.39;109700;1249;61642;-72
2023/04/09 06:54:56;;;;;;;90.10;74.10;;;;;;;9.53;100.00;99653.28;109708;1249;64085;-73
2023/04/09 06:57:22;;;;;;;91.80;77.20;;;;;;;9.58;100.00;99653.90;109654;1249;58986;-72
2023/04/09 06:59:49;;;;;;;87.10;72.40;;;;;;;9.64;100.00;99652.30;109680;1249;59077;-72
2023/04/09 07:02:15;;;;;;;91.00;76.00;;;;;;;9.67;100.00;99656.60;109712;1250;59614;-72
2023/04/09 07:04:42;;;;;;;83.80;69.40;;;;;;;9.73;100.00;99657.88;109742;1250;61280;-73
2023/04/09 07:07:09;;;;;;;81.90;67.40;;;;;;;9.80;100.00;99656.64;109672;1249;65282;-73
2023/04/09 07:09:36;;;;;;;76.50;62.40;;;;;;;9.86;100.00;99654.52;109395;1251;59499;-73
2023/04/09 07:12:03;;;;;;;76.10;61.80;;;;;;;9.91;100.00;99656.93;109715;1250;59079;-73
2023/04/09 07:14:29;;;;;;;75.90;62.40;;;;;;;10.00;100.00;99652.90;109428;1250;64914;-73
2023/04/09 07:16:56;;;;;;;82.40;66.20;;;;;;;10.14;100.00;99656.94;109548;1251;59124;-72
2023/04/09 07:19:22;;;;;;;78.30;63.70;;;;;;;10.26;100.00;99654.70;109669;1250;65054;-71
2023/04/09 07:21:49;;;;;;;75.00;62.00;;;;;;;10.39;100.00;99655.93;109723;1249;58941;-72
2023/04/09 07:24:16;;;;;;;73.70;61.20;;;;;;;10.55;100.00;99654.15;109671;1249;59012;-72
2023/04/09 07:26:43;;;;;;;73.40;62.30;;;;;;;10.73;100.00;99652.59;109685;1250;66051;-71
2023/04/09 07:29:09;;;;;;;75.60;65.30;;;;;;;10.96;100.00;99653.77;109713;1249;60091;-72
2023/04/09 07:31:36;;;;;;;83.20;65.30;;;;;;;11.24;100.00;99654.27;109705;1249;65096;-72
2023/04/09 07:34:05;;;;;;;80.50;67.20;;;;;;;11.51;100.00;99654.06;109720;1250;59027;-71
2023/04/09 07:36:32;;;;;;;69.60;58.70;;;;;;;11.70;100.00;99653.30;109732;1249;58968;-72
2023/04/09 07:38:59;;;;;;;60.10;51.50;;;;;;;11.71;100.00;99651.10;109562;1249;66887;-72
2023/04/09 07:41:25;;;;;;;45.80;40.90;;;;;;;11.83;100.00;99651.63;109477;1250;61346;-72
2023/04/09 07:43:52;;;;;;;45.60;40.60;;;;;;;11.91;100.00;99658.64;109674;1250;70975;-72
2023/04/09 07:46:20;;;;;;;42.40;37.90;;;;;;;12.05;100.00;99659.52;109682;1249;58967;-72
2023/04/09 07:48:48;;;;;;;48.20;42.20;;;;;;;12.27;100.00;99662.08;109663;1250;59130;-72
2023/04/09 07:51:15;;;;;;;48.30;42.90;;;;;;;12.57;100.00;99658.73;109452;1250;66682;-72
2023/04/09 07:53:41;;;;;;;39.70;35.50;;;;;;;12.82;100.00;99658.38;109728;1250;59398;-72
2023/04/09 07:56:08;;;;;;;37.30;33.30;;;;;;;12.78;100.00;99663.29;109718;1249;59032;-72
2023/04/09 07:58:36;;;;;;;38.10;34.10;;;;;;;12.36;100.00;99665.58;109738;1249;59038;-72
2023/04/09 08:01:03;;;;;;;40.20;35.60;;;;;;;11.92;100.00;99669.77;109717;1249;59106;-73
2023/04/09 08:03:30;;;;;;;37.90;33.50;;;;;;;11.63;100.00;99666.20;109699;1250;67325;-72
2023/04/09 08:05:56;;;;;;;33.30;29.90;;;;;;;11.43;100.00;99666.30;109529;1251;60103;-73
2023/04/09 08:08:23;;;;;;;34.30;30.20;;;;;;;11.29;100.00;99663.96;109243;1254;65159;-73
2023/04/09 08:10:50;;;;;;;31.40;28.10;;;;;;;11.32;100.00;99664.81;109229;1256;59044;-73
2023/04/09 08:13:17;;;;;;;32.90;28.00;;;;;;;11.43;100.00;99662.91;109283;1256;59482;-73
2023/04/09 08:15:43;;;;;;;31.40;27.50;;;;;;;11.50;100.00;99665.23;109254;1257;66775;-72
2023/04/09 08:18:10;;;;;;;30.20;25.60;;;;;;;11.58;100.00;99663.29;109310;1255;59292;-73
2023/04/09 08:20:43;;;;;;;31.50;27.80;;;;;;;11.68;100.00;99665.15;109262;1256;59186;-72
2023/04/09 08:23:10;;;;;;;34.70;31.00;;;;;;;11.80;100.00;99667.09;109246;1256;58952;-73
2023/04/09 08:25:37;;;;;;;34.10;30.00;;;;;;;11.80;100.00;99667.30;109033;1256;59012;-73
2023/04/09 08:28:04;;;;;;;30.80;27.50;;;;;;;11.82;100.00;99671.59;109249;1256;64795;-73
2023/04/09 08:30:33;;;;;;;31.60;27.80;;;;;;;11.90;100.00;99674.37;109282;1255;60081;-73
2023/04/09 08:33:00;;;;;;;33.10;28.00;;;;;;;11.98;100.00;99676.02;109028;1255;64079;-73
2023/04/09 08:35:29;;;;;;;31.20;28.00;;;;;;;11.99;100.00;99678.25;109122;1256;59068;-73
2023/04/09 08:37:56;;;;;;;31.60;28.00;;;;;;;12.05;100.00;99681.80;109131;1255;58936;-73
2023/04/09 08:40:22;;;;;;;29.40;26.20;;;;;;;12.26;100.00;99677.84;109609;1250;66029;-73
2023/04/09 08:42:54;;;;;;;27.50;24.60;;;;;;;12.36;100.00;99677.91;109701;1249;59015;-73
2023/04/09 08:45:21;;;;;;;26.20;23.40;;;;;;;12.51;100.00;99675.73;109668;1250;64095;-73
2023/04/09 08:47:49;;;;;;;27.30;24.50;;;;;;;12.74;100.00;99679.96;109688;1250;58977;-73
2023/04/09 08:50:16;;;;;;;30.50;27.50;;;;;;;12.92;100.00;99679.42;109389;1249;59142;-73
2023/04/09 08:52:46;;;;;;;33.60;30.20;;;;;;;13.13;100.00;99678.79;109570;1249;66121;-73
2023/04/09 08:55:13;;;;;;;32.80;29.50;;;;;;;13.35;100.00;99673.95;109735;1250;60212;-73
2023/04/09 08:57:40;;;;;;;32.70;29.20;;;;;;;13.53;100.00;99672.76;109564;1249;65157;-73
2023/04/09 09:00:07;;;;;;;31.70;28.60;;;;;;;13.66;100.00;99669.20;109668;1253;59004;-73
2023/04/09 09:02:34;;;;;;;31.40;28.10;;;;;;;13.67;100.00;99667.65;109737;1250;59012;-73
2023/04/09 09:05:01;;;;;;;31.00;27.50;;;;;;;13.81;100.00;99669.55;109748;1253;66155;-73
2023/04/09 09:07:30;;;;;;;29.30;26.20;;;;;;;14.03;100.00;99670.38;109709;1250;59038;-73
2023/04/09 09:10:03;;;;;;;30.20;27.30;;;;;;;14.38;100.00;99667.34;109752;1251;62862;-73
2023/04/09 09:12:35;;;;;;;28.20;25.40;;;;;;;14.74;100.00;99665.44;109649;1250;59096;-72
2023/04/09 09:15:03;;;;;;;27.70;24.90;;;;;;;14.97;100.00;99662.33;109569;1249;59151;-72
2023/04/09 09:17:30;;;;;;;26.20;23.70;;;;;;;15.18;100.00;99662.05;109708;1250;66019;-72
2023/04/09 09:19:57;;;;;;;25.90;23.20;;;;;;;14.97;100.00;99663.35;109738;1250;59130;-72
2023/04/09 09:22:24;;;;;;;26.10;23.50;;;;;;;14.64;100.00;99664.60;109413;1249;209317;-72
2023/04/09 09:24:52;;;;;;;24.50;22.30;;;;;;;14.51;100.00;99660.13;109676;1251;59219;-72
2023/04/09 09:27:35;;;;;;;24.80;22.30;;;;;;;14.44;100.00;99657.55;109604;1250;59255;-72
2023/04/09 09:30:04;;;;;;;26.30;23.90;;;;;;;14.39;100.00;99660.44;109689;1250;66079;-72
2023/04/09 09:32:31;;;;;;;24.70;22.20;;;;;;;14.28;100.00;99663.75;109693;1251;59277;-73
2023/04/09 09:35:01;;;;;;;25.70;23.10;;;;;;;14.30;100.00;99660.91;109594;1250;63019;-72
2023/04/09 09:37:29;;;;;;;25.90;23.30;;;;;;;14.46;100.00;99659.09;109353;1251;59288;-73
2023/04/09 09:39:57;;;;;;;26.00;23.50;;;;;;;14.72;100.00;99658.50;109676;1249;58998;-71
2023/04/09 09:42:25;;;;;;;26.00;23.40;;;;;;;14.89;100.00;99659.89;109759;1250;64814;-76
2023/04/09 09:44:53;;;;;;;25.80;23.30;;;;;;;14.77;100.00;99663.80;109578;1250;61071;-76
2023/04/09 09:47:21;;;;;;;25.70;23.20;;;;;;;14.59;100.00;99662.58;109567;1249;64080;-76
2023/04/09 09:49:49;;;;;;;24.90;22.50;;;;;;;14.43;100.00;99659.64;109512;1250;58925;-76
2023/04/09 09:52:23;;;;;;;23.40;21.10;;;;;;;14.43;100.00;99659.98;109726;1250;58899;-77
2023/04/09 09:54:52;;;;;;;22.70;20.40;;;;;;;14.46;100.00;99655.48;109714;1250;66134;-76
2023/04/09 09:57:21;;;;;;;21.80;19.60;;;;;;;14.38;100.00;99654.42;109547;1250;60858;-76
2023/04/09 09:59:54;;;;;;;21.30;19.10;;;;;;;14.15;100.00;99654.65;109727;1249;64346;-76
2023/04/09 10:02:29;;;;;;;22.50;20.30;;;;;;;14.03;100.00;99650.85;109657;1249;58950;-76
2023/04/09 10:04:59;;;;;;;22.80;20.70;;;;;;;13.82;100.00;99650.02;109715;1251;58970;-76
2023/04/09 10:07:27;;;;;;;23.50;20.80;;;;;;;13.68;100.00;99644.96;109561;1250;65781;-76
2023/04/09 10:09:57;;;;;;;21.60;19.40;;;;;;;13.49;100.00;99650.00;109741;1249;60848;-76
2023/04/09 10:12:26;;;;;;;22.70;20.50;;;;;;;13.23;100.00;99652.84;109713;1251;72606;-76
2023/04/09 10:14:55;;;;;;;22.90;20.70;;;;;;;13.12;100.00;99653.15;109540;1250;59019;-76
2023/04/09 10:17:21;;;;;;;22.90;20.60;;;;;;;13.05;100.00;99652.58;109712;1251;59022;-76
2023/04/09 10:20:09;;;;;;;21.90;19.70;;;;;;;12.92;100.00;99654.14;109738;1250;67247;-76
2023/04/09 10:22:37;;;;;;;21.60;19.40;;;;;;;12.75;100.00;99655.63;109777;1250;58963;-77
2023/04/09 10:25:05;;;;;;;22.60;20.20;;;;;;;12.62;100.00;99654.14;109546;1249;62844;-77
2023/04/09 10:27:31;;;;;;;23.50;20.70;;;;;;;12.50;100.00;99648.14;109300;1249;59119;-76
2023/04/09 10:30:01;;;;;;;27.00;24.20;;;;;;;12.43;100.00;99645.55;109690;1250;59090;-76
2023/04/09 10:32:34;;;;;;;25.90;23.20;;;;;;;12.38;100.00;99643.58;109747;1250;66037;-76
2023/04/09 10:35:02;;;;;;;29.70;26.60;;;;;;;12.36;100.00;99643.17;109556;1250;59440;-76
2023/04/09 10:37:29;;;;;;;30.70;27.50;;;;;;;12.32;100.00;99643.05;109657;1250;64122;-76
2023/04/09 10:39:56;;;;;;;30.30;27.00;;;;;;;12.25;100.00;99645.42;109669;1249;59186;-76
2023/04/09 10:42:29;;;;;;;29.00;26.00;;;;;;;12.21;100.00;99643.39;109733;1250;59341;-76
2023/04/09 10:45:10;;;;;;;30.30;27.10;;;;;;;12.17;100.00;99639.39;109536;1251;64826;-76
2023/04/09 10:47:45;;;;;;;30.10;26.80;;;;;;;12.12;100.00;99640.39;109312;1251;59049;-76
2023/04/09 10:50:26;;;;;;;28.60;25.70;;;;;;;12.06;100.00;99641.67;109513;1250;65256;-76
2023/04/09 10:52:59;;;;;;;32.10;28.60;;;;;;;12.01;100.00;99637.89;109324;1251;58991;-76
2023/04/09 10:55:37;;;;;;;34.60;30.30;;;;;;;11.99;100.00;99637.09;109712;1249;58969;-76
2023/04/09 10:58:05;;;;;;;32.70;29.50;;;;;;;11.99;100.00;99636.55;109372;1250;66062;-76
2023/04/09 11:00:36;;;;;;;34.80;29.50;;;;;;;11.99;100.00;99632.30;109618;1250;59042;-76
2023/04/09 11:03:21;;;;;;;32.80;29.30;;;;;;;11.98;100.00;99632.58;109513;1250;64804;-75
2023/04/09 11:05:55;;;;;;;34.50;30.80;;;;;;;12.00;100.00;99633.64;109720;1250;58957;-76